createdAt,value
2019-04-19T00:01:22.512Z,11.13
2019-04-19T00:03:59.102Z,11.29
2019-04-19T00:06:35.773Z,10.93
2019-04-19T00:09:25.210Z,11.13
2019-04-19T00:11:43.916Z,11.09
2019-04-19T00:14:10.782Z,10.83
2019-04-19T00:16:42.726Z,10.90
2019-04-19T00:19:29.755Z,10.54
2019-04-19T00:22:08.623Z,10.93
2019-04-19T00:24:18.980Z,10.55
2019-04-19T00:26:50.740Z,10.61
2019-04-19T00:29:33.779Z,10.45
2019-04-19T00:32:11.908Z,10.28
2019-04-19T00:34:27.475Z,10.56
2019-04-19T00:36:59.491Z,10.53
2019-04-19T00:39:51.783Z,10.10
2019-04-19T00:42:24.736Z,10.79
2019-04-19T00:45:07.981Z,10.89
2019-04-19T00:47:40.839Z,10.52
2019-04-19T00:50:07.663Z,10.58
2019-04-19T00:52:44.543Z,10.20
2019-04-19T00:55:12.237Z,10.35
2019-04-19T00:57:42.254Z,10.47
2019-04-19T01:00:12.917Z,10.32
2019-04-19T01:02:41.981Z,10.11
2019-04-19T01:05:16.524Z,10.19
2019-04-19T01:07:45.463Z,10.18
2019-04-19T01:10:32.566Z,10.09
2019-04-19T01:13:05.459Z,10.34
2019-04-19T01:15:31.023Z,10.21
2019-04-19T01:18:11.695Z,10.72
2019-04-19T01:20:27.420Z,10.26
2019-04-19T01:23:03.806Z,9.95
2019-04-19T01:25:32.245Z,9.88
2019-04-19T01:28:10.977Z,9.91
2019-04-19T01:30:39.875Z,9.82
2019-04-19T01:33:08.912Z,10.00
2019-04-19T01:35:45.137Z,9.78
2019-04-19T01:38:13.623Z,9.42
2019-04-19T01:41:03.212Z,10.15
2019-04-19T01:43:40.511Z,10.06
2019-04-19T01:46:13.093Z,10.20
2019-04-19T01:48:50.605Z,9.70
2019-04-19T01:51:36.959Z,9.52
2019-04-19T01:54:07.630Z,9.99
2019-04-19T01:56:22.023Z,9.80
2019-04-19T01:58:57.333Z,9.46
2019-04-19T02:01:29.177Z,9.67
2019-04-19T02:03:58.820Z,9.33
2019-04-19T02:06:35.032Z,9.42
2019-04-19T02:09:07.458Z,9.51
2019-04-19T02:11:57.938Z,9.74
2019-04-19T02:14:30.643Z,9.44
2019-04-19T02:17:02.030Z,9.61
2019-04-19T02:19:31.354Z,9.25
2019-04-19T02:22:11.385Z,9.41
2019-04-19T02:24:41.767Z,9.25
2019-04-19T02:27:10.122Z,9.47
2019-04-19T02:29:50.061Z,9.45
2019-04-19T02:32:31.033Z,8.86
2019-04-19T02:37:53.056Z,9.34
2019-04-19T02:50:42.994Z,8.89
2019-04-19T02:53:01.846Z,8.96
2019-04-19T02:55:47.395Z,8.74
2019-04-19T02:58:13.050Z,8.64
2019-04-19T03:00:54.582Z,9.07
2019-04-19T03:03:22.090Z,8.58
2019-04-19T03:05:47.451Z,8.74
2019-04-19T03:08:00.134Z,8.91
2019-04-19T03:10:36.869Z,9.08
2019-04-19T03:13:20.194Z,8.91
2019-04-19T03:15:53.103Z,8.51
2019-04-19T03:18:29.047Z,8.70
2019-04-19T03:20:55.470Z,8.84
2019-04-19T03:23:26.331Z,8.56
2019-04-19T03:25:58.944Z,8.50
2019-04-19T03:28:31.254Z,8.38
2019-04-19T03:31:27.602Z,8.40
2019-04-19T03:34:00.930Z,8.30
2019-04-19T03:36:14.901Z,8.21
2019-04-19T03:38:43.046Z,8.19
2019-04-19T03:41:40.788Z,8.27
2019-04-19T03:44:18.513Z,8.10
2019-04-19T03:46:58.030Z,8.60
2019-04-19T03:49:30.952Z,8.28
2019-04-19T03:52:04.676Z,8.22
2019-04-19T03:54:23.646Z,8.11
2019-04-19T03:56:58.910Z,7.89
2019-04-19T03:59:14.190Z,8.10
2019-04-19T04:01:51.016Z,8.33
2019-04-19T04:04:22.285Z,8.37
2019-04-19T04:06:50.613Z,7.89
2019-04-19T04:09:43.371Z,8.58
2019-04-19T04:12:25.120Z,8.27
2019-04-19T04:15:04.481Z,8.12
2019-04-19T04:17:26.770Z,8.32
2019-04-19T04:19:58.726Z,8.25
2019-04-19T04:22:33.474Z,8.45
2019-04-19T04:25:11.624Z,8.31
2019-04-19T04:27:49.706Z,8.81
2019-04-19T04:30:19.874Z,8.40
2019-04-19T04:32:53.732Z,8.39
2019-04-19T04:35:33.135Z,8.38
2019-04-19T04:37:58.549Z,8.20
2019-04-19T04:40:21.015Z,8.37
2019-04-19T04:43:04.081Z,8.27
2019-04-19T04:45:49.562Z,8.16
2019-04-19T04:48:27.555Z,8.17
2019-04-19T04:51:12.537Z,8.29
2019-04-19T04:53:25.848Z,8.18
2019-04-19T04:56:10.927Z,8.29
2019-04-19T04:58:45.641Z,8.59
2019-04-19T05:01:26.892Z,8.70
2019-04-19T05:04:02.035Z,8.93
2019-04-19T05:06:35.338Z,8.89
2019-04-19T05:09:16.923Z,9.14
2019-04-19T05:11:51.110Z,9.25
2019-04-19T05:14:18.251Z,9.16
2019-04-19T05:17:04.028Z,9.26
2019-04-19T05:19:25.278Z,9.42
2019-04-19T05:21:51.360Z,9.34
2019-04-19T05:24:42.824Z,9.50
2019-04-19T05:27:10.355Z,9.47
2019-04-19T05:29:23.217Z,10.00
2019-04-19T05:31:54.215Z,10.07
2019-04-19T05:34:42.752Z,10.26
2019-04-19T05:37:11.615Z,10.15
2019-04-19T05:39:55.774Z,10.47
2019-04-19T05:42:31.859Z,10.31
2019-04-19T05:45:21.877Z,10.19
2019-04-19T05:47:33.406Z,10.44
2019-04-19T05:50:18.564Z,10.44
2019-04-19T05:52:42.377Z,10.42
2019-04-19T05:54:58.533Z,10.17
2019-04-19T05:57:46.453Z,10.30
2019-04-19T06:00:23.519Z,10.72
2019-04-19T06:02:53.568Z,10.93
2019-04-19T06:05:36.660Z,10.80
2019-04-19T06:07:56.102Z,10.91
2019-04-19T06:10:17.363Z,11.13
2019-04-19T06:12:51.497Z,10.65
2019-04-19T06:15:45.110Z,10.98
2019-04-19T06:18:18.973Z,11.13
2019-04-19T06:21:07.732Z,11.14
2019-04-19T06:23:31.023Z,11.75
2019-04-19T06:26:35.075Z,11.54
2019-04-19T06:28:48.023Z,11.81
2019-04-19T06:31:14.044Z,12.07
2019-04-19T06:33:44.442Z,12.30
2019-04-19T06:35:59.479Z,12.13
2019-04-19T06:38:28.902Z,12.02
2019-04-19T06:41:06.717Z,12.27
2019-04-19T06:43:43.483Z,12.45
2019-04-19T06:46:17.928Z,12.63
2019-04-19T06:48:43.115Z,12.76
2019-04-19T06:51:20.472Z,12.83
2019-04-19T06:53:51.748Z,12.99
2019-04-19T06:56:24.565Z,13.37
2019-04-19T06:58:57.689Z,13.05
2019-04-19T07:01:31.765Z,13.42
2019-04-19T07:03:54.254Z,13.30
2019-04-19T07:06:39.752Z,13.48
2019-04-19T07:09:21.292Z,13.96
2019-04-19T07:11:50.046Z,14.16
2019-04-19T07:14:10.286Z,14.15
2019-04-19T07:16:55.753Z,14.04
2019-04-19T07:19:33.152Z,13.93
2019-04-19T07:21:57.402Z,14.06
2019-04-19T07:24:40.411Z,14.09
2019-04-19T07:27:03.177Z,14.31
2019-04-19T07:29:19.505Z,14.29
2019-04-19T07:31:51.209Z,14.44
2019-04-19T07:34:38.401Z,14.68
2019-04-19T07:37:14.405Z,14.74
2019-04-19T07:39:54.461Z,15.11
2019-04-19T07:42:22.500Z,14.83
2019-04-19T07:44:53.828Z,14.97
2019-04-19T07:47:35.758Z,15.09
2019-04-19T07:50:04.936Z,15.40
2019-04-19T07:52:38.648Z,15.80
2019-04-19T07:55:05.700Z,16.12
2019-04-19T07:58:04.771Z,16.07
2019-04-19T08:00:37.555Z,16.24
2019-04-19T08:03:11.812Z,16.11
2019-04-19T08:05:43.938Z,16.38
2019-04-19T08:08:30.245Z,16.54
2019-04-19T08:15:55.120Z,16.73
2019-04-19T08:18:41.160Z,16.98
2019-04-19T08:28:20.417Z,17.02
2019-04-19T08:30:46.663Z,17.28
2019-04-19T08:33:14.675Z,17.35
2019-04-19T08:35:50.616Z,17.61
2019-04-19T08:38:23.053Z,17.95
2019-04-19T08:41:05.856Z,17.83
2019-04-19T08:43:43.898Z,17.76
2019-04-19T08:45:58.980Z,17.73
2019-04-19T08:48:47.818Z,17.80
2019-04-19T08:51:37.184Z,18.25
2019-04-19T08:54:28.681Z,18.48
2019-04-19T08:56:49.577Z,18.14
2019-04-19T09:02:05.298Z,18.73
2019-04-19T09:04:34.630Z,18.96
2019-04-19T09:07:35.219Z,18.80
2019-04-19T09:09:48.244Z,18.80
2019-04-19T09:12:12.280Z,18.40
2019-04-19T09:14:52.303Z,19.25
2019-04-19T09:17:24.613Z,18.86
2019-04-19T09:22:23.767Z,19.07
2019-04-19T09:24:51.907Z,19.34
2019-04-19T09:27:39.440Z,19.61
2019-04-19T09:30:04.478Z,19.53
2019-04-19T09:32:21.728Z,19.77
2019-04-19T09:34:59.761Z,19.57
2019-04-19T09:37:39.961Z,19.56
2019-04-19T09:40:04.620Z,19.60
2019-04-19T09:42:38.932Z,19.92
2019-04-19T09:45:02.609Z,19.90
2019-04-19T09:47:33.423Z,20.18
2019-04-19T09:50:14.635Z,20.41
2019-04-19T09:52:59.912Z,20.78
2019-04-19T09:55:32.868Z,20.60
2019-04-19T09:58:05.822Z,20.62
2019-04-19T10:00:23.750Z,20.36
2019-04-19T10:02:56.458Z,20.71
2019-04-19T10:05:24.860Z,20.71
2019-04-19T10:07:56.766Z,20.83
2019-04-19T10:10:27.511Z,21.17
2019-04-19T10:12:58.297Z,20.72
2019-04-19T10:15:40.559Z,20.94
2019-04-19T10:18:12.505Z,21.31
2019-04-19T10:20:48.898Z,21.69
2019-04-19T10:23:19.835Z,21.31
2019-04-19T10:25:58.563Z,21.34
2019-04-19T10:28:28.413Z,21.77
2019-04-19T10:31:04.114Z,21.44
2019-04-19T10:33:38.992Z,21.40
2019-04-19T10:36:08.702Z,21.50
2019-04-19T10:38:40.900Z,21.72
2019-04-19T10:41:11.820Z,21.79
2019-04-19T10:43:43.298Z,21.90
2019-04-19T10:46:15.080Z,22.29
2019-04-19T10:48:56.387Z,22.63
2019-04-19T10:51:21.605Z,22.63
2019-04-19T10:53:52.684Z,21.94
2019-04-19T10:56:38.517Z,22.17
2019-04-19T10:59:09.328Z,22.59
2019-04-19T11:01:41.217Z,22.77
2019-04-19T11:04:12.997Z,22.49
2019-04-19T11:06:45.254Z,22.72
2019-04-19T11:09:16.389Z,22.60
2019-04-19T11:11:47.689Z,22.42
2019-04-19T11:14:18.506Z,23.04
2019-04-19T11:16:49.409Z,23.09
2019-04-19T11:19:32.913Z,23.00
2019-04-19T11:21:53.860Z,23.54
2019-04-19T11:24:25.600Z,23.13
2019-04-19T11:26:57.110Z,23.70
2019-04-19T11:29:28.207Z,23.37
2019-04-19T11:32:07.899Z,23.34
2019-04-19T11:34:40.949Z,23.23
2019-04-19T11:37:13.638Z,23.61
2019-04-19T11:39:46.251Z,24.10
2019-04-19T11:42:17.386Z,23.65
2019-04-19T11:44:48.255Z,24.05
2019-04-19T11:47:19.402Z,23.75
2019-04-19T11:49:51.307Z,23.96
2019-04-19T11:52:24.102Z,24.32
2019-04-19T11:54:54.887Z,24.43
2019-04-19T11:57:30.392Z,24.25
2019-04-19T12:00:09.742Z,23.94
2019-04-19T12:02:46.253Z,23.53
2019-04-19T12:05:23.291Z,23.86
2019-04-19T12:07:50.522Z,23.90
2019-04-19T12:10:21.467Z,24.21
2019-04-19T12:12:53.087Z,22.16
2019-04-19T12:15:27.685Z,24.67
2019-04-19T12:17:59.948Z,25.45
2019-04-19T12:20:31.124Z,25.44
2019-04-19T12:23:02.117Z,24.96
2019-04-19T12:25:33.426Z,24.62
2019-04-19T12:28:05.574Z,24.78
2019-04-19T12:30:38.372Z,25.10
2019-04-19T12:33:09.348Z,24.77
2019-04-19T12:35:41.219Z,24.87
2019-04-19T12:38:12.412Z,25.16
2019-04-19T12:40:47.982Z,25.00
2019-04-19T12:43:19.543Z,25.39
2019-04-19T12:45:52.539Z,24.85
2019-04-19T12:48:25.641Z,24.93
2019-04-19T12:50:56.496Z,25.92
2019-04-19T12:53:28.536Z,24.97
2019-04-19T12:55:59.982Z,24.82
2019-04-19T12:58:32.191Z,25.56
2019-04-19T13:01:05.902Z,25.11
2019-04-19T13:03:54.770Z,25.80
2019-04-19T13:06:27.646Z,25.87
2019-04-19T13:08:59.615Z,25.87
2019-04-19T13:11:30.489Z,25.71
2019-04-19T13:14:01.802Z,26.92
2019-04-19T13:16:32.644Z,26.95
2019-04-19T13:19:03.837Z,26.96
2019-04-19T13:21:34.607Z,27.10
2019-04-19T13:24:06.530Z,28.22
2019-04-19T13:26:37.462Z,26.94
2019-04-19T13:29:09.403Z,27.97
2019-04-19T13:31:40.880Z,27.65
2019-04-19T13:34:11.856Z,27.27
2019-04-19T13:36:45.028Z,28.21
2019-04-19T13:39:34.504Z,27.77
2019-04-19T13:42:07.185Z,27.53
2019-04-19T13:44:38.835Z,26.73
2019-04-19T13:47:10.870Z,27.91
2019-04-19T13:49:42.420Z,28.08
2019-04-19T13:52:14.530Z,28.22
2019-04-19T13:54:45.382Z,27.75
2019-04-19T13:57:17.534Z,26.76
2019-04-19T13:59:56.303Z,26.60
2019-04-19T14:02:21.089Z,26.78
2019-04-19T14:04:51.856Z,27.77
2019-04-19T14:07:23.204Z,27.36
2019-04-19T14:09:54.871Z,28.45
2019-04-19T14:12:27.087Z,27.65
2019-04-19T14:14:58.949Z,25.84
2019-04-19T14:17:31.687Z,27.46
2019-04-19T14:20:07.097Z,26.06
2019-04-19T14:22:39.326Z,27.18
2019-04-19T14:25:11.529Z,28.08
2019-04-19T14:27:42.467Z,27.42
2019-04-19T14:30:13.350Z,26.56
2019-04-19T14:32:45.366Z,27.66
2019-04-19T14:35:17.307Z,28.07
2019-04-19T14:37:48.267Z,28.65
2019-04-19T14:40:21.669Z,29.37
2019-04-19T14:42:52.696Z,29.97
2019-04-19T14:45:28.086Z,29.51
2019-04-19T14:47:59.297Z,28.82
2019-04-19T14:50:42.615Z,28.85
2019-04-19T14:53:03.596Z,27.56
2019-04-19T14:55:35.874Z,28.21
2019-04-19T14:58:06.708Z,28.92
2019-04-19T15:00:38.943Z,29.03
2019-04-19T15:03:12.740Z,28.78
2019-04-19T15:05:45.928Z,28.60
2019-04-19T15:08:17.036Z,29.35
2019-04-19T15:10:47.837Z,28.94
2019-04-19T15:13:18.945Z,28.57
2019-04-19T15:15:49.941Z,29.23
2019-04-19T15:18:23.230Z,28.92
2019-04-19T15:21:03.236Z,29.24
2019-04-19T15:23:26.848Z,29.39
2019-04-19T15:25:58.398Z,30.01
2019-04-19T15:28:29.346Z,30.15
2019-04-19T15:31:00.417Z,29.02
2019-04-19T15:33:32.279Z,28.98
2019-04-19T15:36:04.670Z,28.60
2019-04-19T15:38:35.837Z,29.44
2019-04-19T15:41:08.029Z,28.78
2019-04-19T15:43:40.162Z,29.61
2019-04-19T15:46:11.570Z,28.41
2019-04-19T15:48:46.898Z,29.12
2019-04-19T15:51:22.072Z,28.55
2019-04-19T15:53:50.238Z,27.73
2019-04-19T15:56:20.500Z,27.16
2019-04-19T15:58:51.282Z,26.67
2019-04-19T16:01:36.243Z,26.72
2019-04-19T16:04:08.020Z,25.31
2019-04-19T16:06:46.523Z,24.76
2019-04-19T16:09:22.422Z,24.31
2019-04-19T16:12:08.101Z,24.44
2019-04-19T16:14:39.924Z,24.23
2019-04-19T16:17:11.508Z,23.93
2019-04-19T16:19:42.813Z,23.65
2019-04-19T16:22:14.199Z,24.15
2019-04-19T16:24:45.229Z,23.69
2019-04-19T16:27:17.435Z,24.05
2019-04-19T16:29:52.030Z,24.19
2019-04-19T16:32:21.241Z,23.82
2019-04-19T16:34:52.061Z,23.45
2019-04-19T16:37:22.835Z,23.27
2019-04-19T16:39:53.994Z,23.10
2019-04-19T16:42:25.110Z,23.21
2019-04-19T16:44:56.267Z,22.94
2019-04-19T16:47:27.375Z,23.03
2019-04-19T16:49:58.613Z,22.80
2019-04-19T16:52:29.446Z,23.01
2019-04-19T16:55:00.646Z,23.36
2019-04-19T16:57:33.020Z,23.04
2019-04-19T17:00:09.130Z,23.03
2019-04-19T17:02:40.724Z,22.87
2019-04-19T17:05:12.682Z,22.44
2019-04-19T17:07:43.717Z,22.73
2019-04-19T17:10:15.684Z,22.84
2019-04-19T17:12:47.367Z,22.58
2019-04-19T17:15:37.001Z,22.47
2019-04-19T17:18:16.600Z,22.41
2019-04-19T17:21:01.795Z,22.23
2019-04-19T17:23:32.843Z,22.20
2019-04-19T17:26:04.723Z,22.22
2019-04-19T17:28:36.839Z,22.02
2019-04-19T17:31:08.639Z,22.13
2019-04-19T17:33:40.086Z,22.19
2019-04-19T17:36:12.431Z,22.20
2019-04-19T17:38:47.000Z,21.59
2019-04-19T17:41:16.609Z,21.47
2019-04-19T17:43:47.812Z,21.27
2019-04-19T17:46:18.723Z,21.07
2019-04-19T17:48:50.666Z,21.01
2019-04-19T17:51:21.996Z,20.92
2019-04-19T17:53:53.733Z,21.41
2019-04-19T17:56:24.725Z,21.80
2019-04-19T17:58:56.161Z,21.77
2019-04-19T18:01:28.190Z,21.76
2019-04-19T18:03:59.249Z,21.92
2019-04-19T18:06:30.122Z,21.07
2019-04-19T18:09:12.321Z,20.88
2019-04-19T18:11:38.394Z,20.94
2019-04-19T18:14:09.671Z,20.47
2019-04-19T18:16:40.690Z,20.44
2019-04-19T18:19:11.473Z,20.60
2019-04-19T18:21:43.717Z,20.18
2019-04-19T18:24:20.633Z,19.97
2019-04-19T18:26:47.297Z,19.70
2019-04-19T18:29:21.772Z,19.62
2019-04-19T18:32:00.401Z,19.12
2019-04-19T18:34:43.744Z,19.01
2019-04-19T18:37:17.308Z,18.60
2019-04-19T18:39:47.882Z,18.63
2019-04-19T18:42:19.878Z,18.21
2019-04-19T18:44:55.108Z,18.12
2019-04-19T18:47:24.792Z,17.87
2019-04-19T18:49:55.773Z,17.71
2019-04-19T18:52:36.739Z,17.71
2019-04-19T18:55:06.814Z,17.32
2019-04-19T18:57:33.955Z,17.32
2019-04-19T19:00:08.219Z,17.42
2019-04-19T19:02:39.028Z,17.25
2019-04-19T19:05:13.060Z,17.25
2019-04-19T19:07:43.380Z,17.28
2019-04-19T19:10:24.541Z,17.47
2019-04-19T19:12:50.998Z,17.21
2019-04-19T19:15:24.198Z,17.09
2019-04-19T19:17:57.662Z,17.55
2019-04-19T19:20:36.554Z,17.55
2019-04-19T19:23:18.530Z,17.72
2019-04-19T19:25:48.167Z,17.86
2019-04-19T19:28:17.188Z,17.69
2019-04-19T19:30:49.019Z,17.62
2019-04-19T19:33:23.676Z,17.75
2019-04-19T19:35:55.847Z,17.45
2019-04-19T19:38:28.655Z,17.15
2019-04-19T19:41:08.115Z,16.94
2019-04-19T19:43:48.753Z,16.94
2019-04-19T19:46:26.091Z,16.94
2019-04-19T19:51:25.394Z,16.82
2019-04-19T19:54:15.538Z,16.60
2019-04-19T19:56:40.605Z,16.25
2019-04-19T19:59:02.598Z,16.22
2019-04-19T20:01:30.639Z,16.22
2019-04-19T20:03:54.377Z,15.98
2019-04-19T20:06:28.277Z,15.82
2019-04-19T20:08:59.798Z,15.82
2019-04-19T20:11:34.125Z,15.75
2019-04-19T20:14:04.870Z,15.65
2019-04-19T20:16:37.918Z,15.60
2019-04-19T20:19:13.120Z,15.39
2019-04-19T20:21:45.146Z,15.39
2019-04-19T20:24:31.025Z,15.31
2019-04-19T20:26:58.597Z,15.10
2019-04-19T20:29:23.979Z,15.02
2019-04-19T20:31:52.512Z,14.99
2019-04-19T20:34:29.907Z,14.99
2019-04-19T20:36:55.975Z,14.89
2019-04-19T20:39:31.081Z,14.60
2019-04-19T20:42:02.824Z,14.58
2019-04-19T20:44:46.863Z,14.51
2019-04-19T20:47:04.793Z,14.51
2019-04-19T20:49:41.267Z,14.50
2019-04-19T20:52:19.028Z,14.36
2019-04-19T20:55:04.829Z,14.35
2019-04-19T20:57:33.500Z,14.24
2019-04-19T20:59:57.119Z,14.46
2019-04-19T21:02:31.887Z,14.00
2019-04-19T21:05:02.577Z,13.99
2019-04-19T21:07:33.703Z,14.35
2019-04-19T21:10:09.949Z,14.08
2019-04-19T21:12:39.454Z,14.10
2019-04-19T21:15:20.867Z,14.12
2019-04-19T21:17:47.666Z,14.11
2019-04-19T21:20:19.789Z,13.88
2019-04-19T21:22:48.737Z,13.90
2019-04-19T21:25:27.638Z,13.94
2019-04-19T21:27:55.150Z,13.73
2019-04-19T21:30:25.178Z,13.80
2019-04-19T21:33:05.780Z,13.61
2019-04-19T21:35:31.534Z,13.58
2019-04-19T21:38:11.399Z,13.37
2019-04-19T21:40:38.005Z,13.64
2019-04-19T21:43:09.108Z,13.74
2019-04-19T21:45:43.201Z,13.65
2019-04-19T21:48:12.928Z,13.78
2019-04-19T21:50:45.869Z,13.63
2019-04-19T21:53:16.662Z,13.59
2019-04-19T21:55:57.268Z,13.51
2019-04-19T21:58:23.181Z,13.35
2019-04-19T22:01:01.325Z,13.31
2019-04-19T22:03:30.428Z,13.00
2019-04-19T22:06:10.894Z,13.03
2019-04-19T22:08:36.698Z,13.16
2019-04-19T22:11:07.095Z,12.79
2019-04-19T22:13:41.845Z,12.91
2019-04-19T22:16:10.696Z,12.95
2019-04-19T22:18:45.770Z,13.04
2019-04-19T22:21:16.819Z,12.76
2019-04-19T22:23:50.966Z,12.60
2019-04-19T22:26:30.085Z,12.56
2019-04-19T22:28:53.443Z,12.62
2019-04-19T22:31:29.174Z,12.54
2019-04-19T22:33:57.024Z,12.68
2019-04-19T22:36:29.976Z,12.50
2019-04-19T22:39:02.025Z,13.17
2019-04-19T22:41:33.193Z,12.93
2019-04-19T22:44:04.776Z,12.80
2019-04-19T22:46:41.810Z,12.41
2019-04-19T22:49:10.335Z,12.37
2019-04-19T22:51:41.046Z,12.30
2019-04-19T22:54:12.719Z,12.07
2019-04-19T22:56:54.715Z,12.07
2019-04-19T22:59:19.690Z,11.92
2019-04-19T23:02:03.198Z,12.05
2019-04-19T23:04:31.180Z,12.02
2019-04-19T23:07:05.405Z,12.01
2019-04-19T23:09:34.955Z,11.97
2019-04-19T23:12:06.777Z,12.05
2019-04-19T23:14:52.057Z,11.99
2019-04-19T23:17:29.352Z,11.94
2019-04-19T23:19:55.722Z,11.86
2019-04-19T23:22:30.733Z,11.76
2019-04-19T23:25:04.053Z,11.64
2019-04-19T23:27:40.558Z,11.68
2019-04-19T23:30:17.018Z,11.59
2019-04-19T23:32:44.001Z,11.68
2019-04-19T23:35:16.237Z,11.65
2019-04-19T23:37:47.324Z,11.58
2019-04-19T23:40:21.685Z,11.59
2019-04-19T23:42:53.432Z,11.40
2019-04-19T23:45:25.475Z,11.29
2019-04-19T23:47:56.432Z,11.34
2019-04-19T23:50:32.666Z,11.42
2019-04-19T23:53:02.512Z,11.41
2019-04-19T23:55:32.788Z,11.38
2019-04-19T23:58:03.651Z,11.39
